GEC22 KSEA-KLAX
Flight info
| Callsign | GEC22 |
|---|---|
| Flight time | N/A |
| Altitude | 37000 |
| Route | OZWLD KPOWW SEA152033 JINMO Q7 JAGWA BURGL IRNMN2 |
| Aircraft | B77L/H-SDE1E2E3FGHIJ2J3J4J5M1RWXY/LB1D1 |
Departure
| Time | N/A |
|---|---|
| Airport | Seattle–Tacoma International Airport (KSEA) |
Arrival
| Time | 2026-04-21 06:05 |
|---|---|
| Airport | Los Angeles International Airport (KLAX) |
| Time | Latitude | Longitude | Altitude | Speed | Heading |
|---|---|---|---|---|---|
| 2026-04-21 04:01 | 46.98610 | -122.20969 | 16805 ft | 384 kts | 161° |
| 2026-04-21 04:02 | 46.96153 | -122.19341 | 17652 ft | 391 kts | 154° |
| 2026-04-21 04:02 | 46.93854 | -122.17177 | 18509 ft | 396 kts | 146° |
| 2026-04-21 04:02 | 46.91605 | -122.14852 | 19117 ft | 395 kts | 153° |
| 2026-04-21 04:02 | 46.89089 | -122.13334 | 19741 ft | 398 kts | 166° |
| 2026-04-21 04:03 | 46.86372 | -122.12592 | 20528 ft | 397 kts | 176° |
| 2026-04-21 04:03 | 46.83608 | -122.12541 | 21214 ft | 398 kts | 181° |
| 2026-04-21 04:03 | 46.80805 | -122.12578 | 21892 ft | 403 kts | 181° |
| 2026-04-21 04:03 | 46.78021 | -122.12606 | 22585 ft | 407 kts | 181° |
| 2026-04-21 04:04 | 46.75167 | -122.12624 | 23346 ft | 410 kts | 180° |
| 2026-04-21 04:04 | 46.72302 | -122.12632 | 24022 ft | 411 kts | 180° |
| 2026-04-21 04:04 | 46.69434 | -122.12627 | 24663 ft | 412 kts | 180° |
| 2026-04-21 04:04 | 46.66555 | -122.12618 | 25292 ft | 414 kts | 181° |
| 2026-04-21 04:05 | 46.63691 | -122.12602 | 25765 ft | 418 kts | 181° |
| 2026-04-21 04:05 | 46.60776 | -122.12589 | 26390 ft | 419 kts | 181° |
| 2026-04-21 04:05 | 46.57858 | -122.12580 | 27039 ft | 420 kts | 182° |
| 2026-04-21 04:05 | 46.54916 | -122.12578 | 27572 ft | 424 kts | 182° |
| 2026-04-21 04:06 | 46.51947 | -122.12563 | 28116 ft | 426 kts | 182° |
| 2026-04-21 04:06 | 46.48980 | -122.12546 | 28736 ft | 427 kts | 182° |
| 2026-04-21 04:06 | 46.46001 | -122.12533 | 29275 ft | 429 kts | 182° |
| 2026-04-21 04:06 | 46.43032 | -122.12522 | 29651 ft | 432 kts | 182° |
| 2026-04-21 04:07 | 46.40015 | -122.12516 | 30072 ft | 434 kts | 182° |
| 2026-04-21 04:07 | 46.37010 | -122.12344 | 30741 ft | 429 kts | 178° |
| 2026-04-21 04:07 | 46.34060 | -122.11843 | 31491 ft | 425 kts | 174° |
| 2026-04-21 04:07 | 46.31148 | -122.11101 | 31938 ft | 425 kts | 174° |
| 2026-04-21 04:08 | 46.28231 | -122.10379 | 32387 ft | 424 kts | 174° |
| 2026-04-21 04:08 | 46.25318 | -122.09672 | 32846 ft | 424 kts | 174° |
| 2026-04-21 04:08 | 46.22449 | -122.08976 | 33345 ft | 422 kts | 174° |
| 2026-04-21 04:08 | 46.19550 | -122.08278 | 33786 ft | 421 kts | 174° |
| 2026-04-21 04:09 | 46.16660 | -122.07576 | 34105 ft | 421 kts | 174° |
| 2026-04-21 04:09 | 46.13759 | -122.06888 | 34360 ft | 423 kts | 174° |
| 2026-04-21 04:09 | 46.10852 | -122.06206 | 34662 ft | 424 kts | 174° |
| 2026-04-21 04:09 | 46.07936 | -122.05519 | 34981 ft | 424 kts | 174° |
| 2026-04-21 04:10 | 46.05026 | -122.04829 | 35290 ft | 424 kts | 174° |
| 2026-04-21 04:10 | 46.02107 | -122.04136 | 35543 ft | 424 kts | 174° |
| 2026-04-21 04:10 | 45.99192 | -122.03443 | 35834 ft | 425 kts | 174° |
| 2026-04-21 04:10 | 45.96267 | -122.02746 | 36112 ft | 425 kts | 173° |
| 2026-04-21 04:11 | 45.93335 | -122.02048 | 36315 ft | 427 kts | 173° |
| 2026-04-21 04:11 | 45.90444 | -122.01361 | 36656 ft | 426 kts | 173° |
| 2026-04-21 04:11 | 45.87500 | -122.00668 | 36772 ft | 430 kts | 173° |
| 2026-04-21 04:12 | 45.81564 | -121.99271 | 36846 ft | 431 kts | 173° |
| 2026-04-21 04:12 | 45.75682 | -121.97878 | 36845 ft | 426 kts | 173° |
| 2026-04-21 04:13 | 45.69850 | -121.96513 | 36846 ft | 424 kts | 173° |
| 2026-04-21 04:13 | 45.64059 | -121.95146 | 36857 ft | 423 kts | 173° |
| 2026-04-21 04:14 | 45.58239 | -121.93786 | 36859 ft | 423 kts | 173° |
| 2026-04-21 04:14 | 45.52452 | -121.92434 | 36841 ft | 424 kts | 173° |
| 2026-04-21 04:15 | 45.46620 | -121.91070 | 36901 ft | 425 kts | 173° |
| 2026-04-21 04:15 | 45.40768 | -121.89706 | 36876 ft | 425 kts | 173° |
| 2026-04-21 04:16 | 45.34941 | -121.88352 | 36875 ft | 424 kts | 173° |
| 2026-04-21 04:16 | 45.29109 | -121.87002 | 36846 ft | 424 kts | 173° |
| 2026-04-21 04:17 | 45.23333 | -121.85666 | 36879 ft | 422 kts | 173° |
| 2026-04-21 04:17 | 45.17545 | -121.84343 | 36883 ft | 420 kts | 173° |
| 2026-04-21 04:18 | 45.11764 | -121.83004 | 36878 ft | 420 kts | 173° |
| 2026-04-21 04:18 | 45.05987 | -121.81668 | 36881 ft | 420 kts | 173° |
| 2026-04-21 04:19 | 45.00231 | -121.80349 | 36889 ft | 420 kts | 173° |
| 2026-04-21 04:19 | 44.94472 | -121.79033 | 36863 ft | 421 kts | 173° |
| 2026-04-21 04:20 | 44.88682 | -121.77710 | 36867 ft | 421 kts | 173° |
| 2026-04-21 04:20 | 44.82888 | -121.76390 | 36887 ft | 421 kts | 173° |
| 2026-04-21 04:21 | 44.77116 | -121.75076 | 36870 ft | 422 kts | 173° |
| 2026-04-21 04:21 | 44.71300 | -121.73755 | 36879 ft | 422 kts | 173° |
| 2026-04-21 04:22 | 44.65494 | -121.72439 | 36880 ft | 422 kts | 173° |
| 2026-04-21 04:22 | 44.59685 | -121.71125 | 36862 ft | 422 kts | 173° |
| 2026-04-21 04:23 | 44.53926 | -121.69825 | 36872 ft | 421 kts | 173° |
| 2026-04-21 04:23 | 44.48121 | -121.68518 | 36861 ft | 420 kts | 173° |
| 2026-04-21 04:24 | 44.42395 | -121.67230 | 36852 ft | 418 kts | 173° |
| 2026-04-21 04:24 | 44.36686 | -121.65949 | 36864 ft | 417 kts | 173° |
| 2026-04-21 04:25 | 44.30975 | -121.64663 | 36865 ft | 416 kts | 173° |
| 2026-04-21 04:25 | 44.25249 | -121.63335 | 36857 ft | 416 kts | 173° |
| 2026-04-21 04:26 | 44.19571 | -121.62011 | 36877 ft | 416 kts | 173° |
| 2026-04-21 04:26 | 44.13851 | -121.60683 | 36913 ft | 417 kts | 173° |
| 2026-04-21 04:27 | 44.08120 | -121.59359 | 36883 ft | 418 kts | 173° |
| 2026-04-21 04:27 | 44.02383 | -121.58034 | 36868 ft | 418 kts | 173° |
| 2026-04-21 04:28 | 43.96642 | -121.56713 | 36875 ft | 417 kts | 173° |
| 2026-04-21 04:28 | 43.90960 | -121.55407 | 36881 ft | 416 kts | 173° |
| 2026-04-21 04:29 | 43.85239 | -121.54096 | 36865 ft | 416 kts | 173° |
| 2026-04-21 04:29 | 43.79537 | -121.52790 | 36886 ft | 415 kts | 173° |
| 2026-04-21 04:30 | 43.73867 | -121.51495 | 36888 ft | 414 kts | 173° |
| 2026-04-21 04:30 | 43.68171 | -121.50199 | 36906 ft | 413 kts | 173° |
| 2026-04-21 04:31 | 43.62491 | -121.48905 | 36894 ft | 412 kts | 173° |
| 2026-04-21 04:31 | 43.56837 | -121.47620 | 36905 ft | 412 kts | 173° |
| 2026-04-21 04:32 | 43.51207 | -121.46344 | 36912 ft | 412 kts | 173° |
| 2026-04-21 04:32 | 43.45546 | -121.45064 | 36886 ft | 412 kts | 173° |
| 2026-04-21 04:33 | 43.39882 | -121.43786 | 36908 ft | 412 kts | 173° |
| 2026-04-21 04:33 | 43.34239 | -121.42512 | 36922 ft | 413 kts | 173° |
| 2026-04-21 04:34 | 43.28541 | -121.41231 | 36931 ft | 415 kts | 173° |
| 2026-04-21 04:34 | 43.23795 | -121.40167 | 36913 ft | 416 kts | 173° |
| 2026-04-21 04:35 | 43.17136 | -121.38672 | 36913 ft | 417 kts | 173° |
| 2026-04-21 04:35 | 43.11400 | -121.37389 | 36915 ft | 417 kts | 173° |
| 2026-04-21 04:36 | 43.06628 | -121.36323 | 36898 ft | 417 kts | 173° |
| 2026-04-21 04:36 | 43.00899 | -121.35046 | 36908 ft | 416 kts | 173° |
| 2026-04-21 04:37 | 42.95180 | -121.33773 | 36924 ft | 416 kts | 173° |
| 2026-04-21 04:37 | 42.89501 | -121.32512 | 36924 ft | 416 kts | 173° |
| 2026-04-21 04:38 | 42.83780 | -121.31245 | 36935 ft | 417 kts | 173° |
| 2026-04-21 04:38 | 42.78050 | -121.29980 | 36935 ft | 416 kts | 173° |
| 2026-04-21 04:39 | 42.72332 | -121.28719 | 36933 ft | 416 kts | 173° |
| 2026-04-21 04:39 | 42.66611 | -121.27459 | 36911 ft | 416 kts | 173° |
| 2026-04-21 04:40 | 42.60903 | -121.26204 | 36928 ft | 416 kts | 173° |
| 2026-04-21 04:40 | 42.55179 | -121.24949 | 36935 ft | 416 kts | 173° |
| 2026-04-21 04:41 | 42.49490 | -121.23701 | 36938 ft | 416 kts | 173° |
| 2026-04-21 04:41 | 42.43761 | -121.22452 | 36976 ft | 415 kts | 173° |
| 2026-04-21 04:42 | 42.38043 | -121.21205 | 36944 ft | 414 kts | 173° |
| 2026-04-21 04:42 | 42.32387 | -121.19970 | 36943 ft | 412 kts | 173° |
| 2026-04-21 04:43 | 42.26740 | -121.18741 | 36946 ft | 409 kts | 173° |
| 2026-04-21 04:43 | 42.21121 | -121.17522 | 36947 ft | 408 kts | 173° |
| 2026-04-21 04:44 | 42.15550 | -121.16316 | 36956 ft | 407 kts | 173° |
| 2026-04-21 04:44 | 42.09954 | -121.15107 | 36936 ft | 407 kts | 173° |
| 2026-04-21 04:45 | 42.04390 | -121.13906 | 36992 ft | 407 kts | 173° |
| 2026-04-21 04:45 | 41.98777 | -121.12698 | 36968 ft | 408 kts | 173° |
| 2026-04-21 04:46 | 41.93149 | -121.11486 | 36960 ft | 408 kts | 173° |
| 2026-04-21 04:46 | 41.87548 | -121.10285 | 36950 ft | 408 kts | 173° |
| 2026-04-21 04:47 | 41.81953 | -121.09085 | 36959 ft | 409 kts | 173° |
| 2026-04-21 04:47 | 41.76314 | -121.07879 | 36956 ft | 410 kts | 173° |
| 2026-04-21 04:48 | 41.70702 | -121.06680 | 36954 ft | 410 kts | 173° |
| 2026-04-21 04:48 | 41.65058 | -121.05477 | 36957 ft | 411 kts | 173° |
| 2026-04-21 04:49 | 41.59395 | -121.04274 | 36964 ft | 412 kts | 173° |
| 2026-04-21 04:49 | 41.53726 | -121.03067 | 36967 ft | 411 kts | 173° |
| 2026-04-21 04:50 | 41.48110 | -121.01876 | 36956 ft | 410 kts | 173° |
| 2026-04-21 04:50 | 41.42472 | -121.00683 | 36961 ft | 409 kts | 174° |
| 2026-04-21 04:51 | 41.36846 | -120.99494 | 36947 ft | 408 kts | 174° |
| 2026-04-21 04:51 | 41.31267 | -120.98317 | 36944 ft | 407 kts | 174° |
| 2026-04-21 04:52 | 41.25672 | -120.97139 | 36945 ft | 406 kts | 174° |
| 2026-04-21 04:52 | 41.20115 | -120.95974 | 36960 ft | 404 kts | 173° |
| 2026-04-21 04:53 | 41.14563 | -120.94806 | 36950 ft | 402 kts | 174° |
| 2026-04-21 04:53 | 41.09036 | -120.93647 | 36939 ft | 401 kts | 174° |
| 2026-04-21 04:54 | 41.03540 | -120.92494 | 36965 ft | 399 kts | 174° |
| 2026-04-21 04:54 | 40.98060 | -120.91592 | 36952 ft | 400 kts | 179° |
| 2026-04-21 04:55 | 40.92449 | -120.91169 | 36966 ft | 406 kts | 179° |
| 2026-04-21 04:55 | 40.86777 | -120.90725 | 36957 ft | 407 kts | 179° |
| 2026-04-21 04:56 | 40.82500 | -120.90384 | 36759 ft | 408 kts | 178° |
| 2026-04-21 04:56 | 40.76752 | -120.89925 | 36894 ft | 418 kts | 176° |
| 2026-04-21 04:57 | 40.70846 | -120.89453 | 37008 ft | 430 kts | 176° |
| 2026-04-21 04:57 | 40.64806 | -120.88971 | 37019 ft | 444 kts | 176° |
| 2026-04-21 04:58 | 40.58515 | -120.88471 | 37016 ft | 458 kts | 176° |
| 2026-04-21 04:58 | 40.53902 | -120.88105 | 37019 ft | 468 kts | 176° |
| 2026-04-21 04:59 | 40.47312 | -120.87583 | 37015 ft | 479 kts | 176° |
| 2026-04-21 04:59 | 40.40648 | -120.87056 | 37003 ft | 482 kts | 176° |
| 2026-04-21 05:00 | 40.33978 | -120.86530 | 36995 ft | 482 kts | 176° |
| 2026-04-21 05:00 | 40.23942 | -120.85740 | 37003 ft | 481 kts | 176° |
| 2026-04-21 05:01 | 40.17242 | -120.85214 | 37001 ft | 479 kts | 176° |
| 2026-04-21 05:01 | 40.10625 | -120.84695 | 37001 ft | 477 kts | 176° |
| 2026-04-21 05:02 | 40.03992 | -120.84177 | 36991 ft | 475 kts | 176° |
| 2026-04-21 05:02 | 39.97405 | -120.83663 | 37001 ft | 473 kts | 176° |
| 2026-04-21 05:03 | 39.90877 | -120.83154 | 37006 ft | 472 kts | 176° |
| 2026-04-21 05:03 | 39.84298 | -120.82643 | 36999 ft | 473 kts | 176° |
| 2026-04-21 05:04 | 39.77708 | -120.82131 | 37003 ft | 473 kts | 176° |
| 2026-04-21 05:04 | 39.71111 | -120.81620 | 37002 ft | 475 kts | 176° |
| 2026-04-21 05:05 | 39.64543 | -120.81112 | 37009 ft | 476 kts | 176° |
| 2026-04-21 05:05 | 39.57915 | -120.80601 | 37011 ft | 477 kts | 176° |
| 2026-04-21 05:06 | 39.51280 | -120.80090 | 36995 ft | 478 kts | 176° |
| 2026-04-21 05:06 | 39.44633 | -120.79579 | 37008 ft | 477 kts | 176° |
| 2026-04-21 05:07 | 39.38043 | -120.79073 | 37001 ft | 476 kts | 176° |
| 2026-04-21 05:07 | 39.31421 | -120.78566 | 36993 ft | 475 kts | 176° |
| 2026-04-21 05:08 | 39.24820 | -120.78062 | 37004 ft | 474 kts | 176° |
| 2026-04-21 05:08 | 39.18273 | -120.77563 | 37003 ft | 473 kts | 176° |
| 2026-04-21 05:09 | 39.11685 | -120.77061 | 36997 ft | 472 kts | 176° |
| 2026-04-21 05:09 | 39.05120 | -120.76562 | 37002 ft | 472 kts | 176° |
| 2026-04-21 05:10 | 38.98602 | -120.76067 | 37008 ft | 471 kts | 176° |
| 2026-04-21 05:10 | 38.92061 | -120.75572 | 36998 ft | 471 kts | 176° |
| 2026-04-21 05:11 | 38.85517 | -120.75078 | 37004 ft | 470 kts | 176° |
| 2026-04-21 05:11 | 38.78975 | -120.74584 | 37000 ft | 470 kts | 176° |
| 2026-04-21 05:12 | 38.72450 | -120.74093 | 36999 ft | 470 kts | 176° |
| 2026-04-21 05:12 | 38.65958 | -120.73605 | 37001 ft | 470 kts | 176° |
| 2026-04-21 05:13 | 38.59431 | -120.73115 | 37000 ft | 469 kts | 176° |
| 2026-04-21 05:13 | 38.52902 | -120.72626 | 37001 ft | 469 kts | 176° |
| 2026-04-21 05:14 | 38.46416 | -120.72141 | 37003 ft | 469 kts | 176° |
| 2026-04-21 05:14 | 38.39893 | -120.71655 | 37000 ft | 469 kts | 176° |
| 2026-04-21 05:15 | 38.33369 | -120.71169 | 37002 ft | 469 kts | 176° |
| 2026-04-21 05:15 | 38.26888 | -120.70687 | 37000 ft | 469 kts | 176° |
| 2026-04-21 05:16 | 38.20375 | -120.70203 | 37003 ft | 468 kts | 176° |
| 2026-04-21 05:16 | 38.13873 | -120.69722 | 36993 ft | 468 kts | 176° |
| 2026-04-21 05:17 | 38.07366 | -120.69241 | 37002 ft | 468 kts | 176° |
| 2026-04-21 05:17 | 38.00862 | -120.68760 | 37004 ft | 468 kts | 176° |
| 2026-04-21 05:18 | 37.94379 | -120.68282 | 37001 ft | 468 kts | 176° |
| 2026-04-21 05:18 | 37.87903 | -120.67806 | 37001 ft | 468 kts | 176° |
| 2026-04-21 05:19 | 37.81398 | -120.67328 | 37003 ft | 467 kts | 176° |
| 2026-04-21 05:19 | 37.74900 | -120.66852 | 36999 ft | 467 kts | 176° |
| 2026-04-21 05:20 | 37.68416 | -120.66378 | 37001 ft | 466 kts | 176° |
| 2026-04-21 05:20 | 37.61985 | -120.65908 | 37000 ft | 465 kts | 176° |
| 2026-04-21 05:21 | 37.55520 | -120.65436 | 37001 ft | 465 kts | 176° |
| 2026-04-21 05:21 | 37.49058 | -120.64966 | 37002 ft | 465 kts | 176° |
| 2026-04-21 05:22 | 37.42594 | -120.64496 | 37001 ft | 465 kts | 176° |
| 2026-04-21 05:22 | 37.37233 | -120.64107 | 37001 ft | 465 kts | 176° |
| 2026-04-21 05:23 | 37.30801 | -120.63184 | 36999 ft | 464 kts | 167° |
| 2026-04-21 05:23 | 37.24541 | -120.61136 | 37001 ft | 464 kts | 165° |
| 2026-04-21 05:24 | 37.18314 | -120.59055 | 37002 ft | 465 kts | 165° |
| 2026-04-21 05:24 | 37.12041 | -120.56997 | 37002 ft | 465 kts | 165° |
| 2026-04-21 05:25 | 37.05801 | -120.54974 | 37001 ft | 465 kts | 165° |
| 2026-04-21 05:25 | 36.99533 | -120.52952 | 37001 ft | 465 kts | 165° |
| 2026-04-21 05:26 | 36.93242 | -120.50924 | 37002 ft | 466 kts | 165° |
| 2026-04-21 05:26 | 36.86966 | -120.48905 | 37001 ft | 466 kts | 165° |
| 2026-04-21 05:27 | 36.80693 | -120.46888 | 37001 ft | 466 kts | 165° |
| 2026-04-21 05:27 | 36.74451 | -120.44886 | 37001 ft | 466 kts | 165° |
| 2026-04-21 05:28 | 36.68172 | -120.42875 | 37001 ft | 466 kts | 165° |
| 2026-04-21 05:28 | 36.61881 | -120.40863 | 37002 ft | 466 kts | 166° |
| 2026-04-21 05:29 | 36.55599 | -120.38858 | 37001 ft | 466 kts | 166° |
| 2026-04-21 05:29 | 36.49336 | -120.36862 | 37001 ft | 466 kts | 166° |
| 2026-04-21 05:30 | 36.43042 | -120.34859 | 37002 ft | 466 kts | 166° |
| 2026-04-21 05:30 | 36.36794 | -120.32875 | 37001 ft | 466 kts | 166° |
| 2026-04-21 05:31 | 36.30495 | -120.30878 | 37000 ft | 466 kts | 166° |
| 2026-04-21 05:31 | 36.24204 | -120.28886 | 37002 ft | 466 kts | 166° |
| 2026-04-21 05:32 | 36.17935 | -120.26905 | 37001 ft | 467 kts | 166° |
| 2026-04-21 05:32 | 36.11639 | -120.24918 | 37002 ft | 467 kts | 166° |
| 2026-04-21 05:33 | 36.05336 | -120.22933 | 37000 ft | 467 kts | 166° |
| 2026-04-21 05:33 | 35.99027 | -120.20949 | 37001 ft | 467 kts | 166° |
| 2026-04-21 05:34 | 35.92723 | -120.18969 | 36998 ft | 468 kts | 166° |
| 2026-04-21 05:34 | 35.86434 | -120.16998 | 37008 ft | 468 kts | 166° |
| 2026-04-21 05:35 | 35.80106 | -120.15017 | 36998 ft | 469 kts | 166° |
| 2026-04-21 05:35 | 35.73802 | -120.13047 | 36999 ft | 469 kts | 166° |
| 2026-04-21 05:36 | 35.67453 | -120.11051 | 37008 ft | 469 kts | 163° |
| 2026-04-21 05:36 | 35.64471 | -120.09572 | 36994 ft | 468 kts | 150° |
| 2026-04-21 05:36 | 35.61683 | -120.07480 | 36992 ft | 468 kts | 147° |
| 2026-04-21 05:37 | 35.56223 | -120.03096 | 37002 ft | 468 kts | 147° |
| 2026-04-21 05:37 | 35.50714 | -119.98811 | 37000 ft | 469 kts | 148° |
| 2026-04-21 05:38 | 35.45147 | -119.94611 | 37002 ft | 470 kts | 148° |
| 2026-04-21 05:38 | 35.39557 | -119.90424 | 37002 ft | 471 kts | 148° |
| 2026-04-21 05:39 | 35.33983 | -119.86244 | 37005 ft | 472 kts | 148° |
| 2026-04-21 05:39 | 35.28367 | -119.82021 | 37005 ft | 473 kts | 147° |
| 2026-04-21 05:40 | 35.25671 | -119.79739 | 36519 ft | 481 kts | 143° |
| 2026-04-21 05:40 | 35.23030 | -119.77259 | 35805 ft | 470 kts | 141° |
| 2026-04-21 05:40 | 35.20480 | -119.74772 | 35027 ft | 468 kts | 141° |
| 2026-04-21 05:40 | 35.17928 | -119.72283 | 34190 ft | 470 kts | 141° |
| 2026-04-21 05:41 | 35.15350 | -119.69807 | 33316 ft | 472 kts | 142° |
| 2026-04-21 05:41 | 35.12743 | -119.67342 | 32408 ft | 474 kts | 142° |
| 2026-04-21 05:41 | 35.10121 | -119.64890 | 31463 ft | 476 kts | 142° |
| 2026-04-21 05:41 | 35.07513 | -119.62464 | 30531 ft | 478 kts | 142° |
| 2026-04-21 05:42 | 35.04881 | -119.60022 | 29866 ft | 473 kts | 143° |
| 2026-04-21 05:42 | 35.02267 | -119.57596 | 29183 ft | 469 kts | 142° |
| 2026-04-21 05:42 | 34.99671 | -119.55188 | 28500 ft | 465 kts | 142° |
| 2026-04-21 05:42 | 34.97097 | -119.52799 | 27855 ft | 461 kts | 142° |
| 2026-04-21 05:43 | 34.94551 | -119.50437 | 27216 ft | 457 kts | 142° |
| 2026-04-21 05:43 | 34.92028 | -119.48100 | 26586 ft | 453 kts | 143° |
| 2026-04-21 05:43 | 34.89553 | -119.45833 | 25967 ft | 449 kts | 143° |
| 2026-04-21 05:43 | 34.87040 | -119.43583 | 25345 ft | 445 kts | 144° |
| 2026-04-21 05:44 | 34.84544 | -119.41365 | 24724 ft | 442 kts | 144° |
| 2026-04-21 05:44 | 34.82067 | -119.39161 | 24132 ft | 438 kts | 143° |
| 2026-04-21 05:44 | 34.79645 | -119.37000 | 23948 ft | 424 kts | 143° |
| 2026-04-21 05:44 | 34.77294 | -119.34900 | 23766 ft | 412 kts | 143° |
| 2026-04-21 05:45 | 34.75035 | -119.32883 | 23571 ft | 401 kts | 143° |
| 2026-04-21 05:45 | 34.72787 | -119.30900 | 23129 ft | 398 kts | 144° |
| 2026-04-21 05:45 | 34.70540 | -119.28941 | 22690 ft | 394 kts | 144° |
| 2026-04-21 05:45 | 34.68318 | -119.27006 | 22248 ft | 391 kts | 144° |
| 2026-04-21 05:46 | 34.66112 | -119.25082 | 21802 ft | 388 kts | 144° |
| 2026-04-21 05:46 | 34.63948 | -119.23198 | 21360 ft | 386 kts | 144° |
| 2026-04-21 05:46 | 34.61762 | -119.21313 | 20903 ft | 384 kts | 144° |
| 2026-04-21 05:46 | 34.59586 | -119.19439 | 20468 ft | 382 kts | 144° |
| 2026-04-21 05:47 | 34.57419 | -119.17574 | 20042 ft | 379 kts | 144° |
| 2026-04-21 05:47 | 34.55279 | -119.15721 | 19618 ft | 376 kts | 144° |
| 2026-04-21 05:47 | 34.53185 | -119.13869 | 19181 ft | 374 kts | 143° |
| 2026-04-21 05:47 | 34.51088 | -119.12002 | 18745 ft | 373 kts | 143° |
| 2026-04-21 05:48 | 34.49001 | -119.10146 | 18302 ft | 371 kts | 143° |
| 2026-04-21 05:48 | 34.46913 | -119.08296 | 17941 ft | 367 kts | 144° |
| 2026-04-21 05:48 | 34.44897 | -119.06515 | 17937 ft | 352 kts | 144° |
| 2026-04-21 05:48 | 34.42941 | -119.04786 | 17898 ft | 343 kts | 143° |
| 2026-04-21 05:49 | 34.41265 | -119.02725 | 17907 ft | 350 kts | 124° |
| 2026-04-21 05:49 | 34.39976 | -119.00204 | 17764 ft | 353 kts | 116° |
| 2026-04-21 05:49 | 34.39081 | -118.97438 | 17121 ft | 351 kts | 114° |
| 2026-04-21 05:49 | 34.37675 | -118.95074 | 16488 ft | 354 kts | 141° |
| 2026-04-21 05:50 | 34.35513 | -118.93761 | 16120 ft | 347 kts | 168° |
| 2026-04-21 05:50 | 34.33131 | -118.93553 | 15662 ft | 339 kts | 179° |
| 2026-04-21 05:50 | 34.30792 | -118.93264 | 14992 ft | 339 kts | 163° |
| 2026-04-21 05:50 | 34.28637 | -118.92102 | 14461 ft | 339 kts | 149° |
| 2026-04-21 05:51 | 34.26698 | -118.90523 | 14108 ft | 334 kts | 144° |
| 2026-04-21 05:51 | 34.24865 | -118.88853 | 13698 ft | 331 kts | 142° |
| 2026-04-21 05:51 | 34.23050 | -118.87142 | 13258 ft | 330 kts | 142° |
| 2026-04-21 05:51 | 34.21238 | -118.85442 | 12838 ft | 327 kts | 142° |
| 2026-04-21 05:52 | 34.19446 | -118.83784 | 12499 ft | 322 kts | 142° |
| 2026-04-21 05:52 | 34.17693 | -118.82172 | 12168 ft | 305 kts | 143° |
| 2026-04-21 05:52 | 34.16087 | -118.80676 | 11866 ft | 289 kts | 140° |
| 2026-04-21 05:52 | 34.14565 | -118.79065 | 11614 ft | 293 kts | 137° |
| 2026-04-21 05:53 | 34.13061 | -118.77400 | 11339 ft | 294 kts | 137° |
| 2026-04-21 05:53 | 34.11558 | -118.75734 | 11063 ft | 291 kts | 137° |
| 2026-04-21 05:53 | 34.10076 | -118.74102 | 10768 ft | 286 kts | 137° |
| 2026-04-21 05:53 | 34.08615 | -118.72505 | 10492 ft | 281 kts | 138° |
| 2026-04-21 05:54 | 34.07165 | -118.70927 | 10226 ft | 280 kts | 138° |
| 2026-04-21 05:54 | 34.05729 | -118.69369 | 9933 ft | 272 kts | 138° |
| 2026-04-21 05:54 | 34.04352 | -118.67875 | 9700 ft | 268 kts | 138° |
| 2026-04-21 05:54 | 34.03152 | -118.66206 | 9418 ft | 263 kts | 115° |
| 2026-04-21 05:55 | 34.02723 | -118.64085 | 9246 ft | 262 kts | 96° |
| 2026-04-21 05:55 | 34.02535 | -118.61864 | 9030 ft | 268 kts | 96° |
| 2026-04-21 05:55 | 34.02327 | -118.59633 | 8775 ft | 268 kts | 96° |
| 2026-04-21 05:55 | 34.02120 | -118.57444 | 8602 ft | 262 kts | 96° |
| 2026-04-21 05:56 | 34.01915 | -118.55258 | 8227 ft | 263 kts | 96° |
| 2026-04-21 05:56 | 34.01712 | -118.53083 | 7970 ft | 258 kts | 96° |
| 2026-04-21 05:56 | 34.01515 | -118.50991 | 7700 ft | 244 kts | 96° |
| 2026-04-21 05:56 | 34.01328 | -118.49008 | 7438 ft | 230 kts | 96° |
| 2026-04-21 05:57 | 34.01149 | -118.47112 | 7238 ft | 232 kts | 96° |
| 2026-04-21 05:57 | 34.01050 | -118.45171 | 6984 ft | 228 kts | 84° |
| 2026-04-21 05:57 | 34.01336 | -118.43322 | 6779 ft | 222 kts | 77° |
| 2026-04-21 05:57 | 34.01688 | -118.41496 | 6582 ft | 226 kts | 77° |
| 2026-04-21 05:58 | 34.02034 | -118.39628 | 6359 ft | 229 kts | 77° |
| 2026-04-21 05:58 | 34.02365 | -118.37778 | 6170 ft | 224 kts | 78° |
| 2026-04-21 05:58 | 34.02688 | -118.35949 | 6006 ft | 220 kts | 78° |
| 2026-04-21 05:58 | 34.02927 | -118.34126 | 5940 ft | 220 kts | 83° |
| 2026-04-21 05:59 | 34.03104 | -118.32319 | 5891 ft | 219 kts | 83° |
| 2026-04-21 05:59 | 34.03284 | -118.30469 | 5586 ft | 225 kts | 83° |
| 2026-04-21 05:59 | 34.03481 | -118.28597 | 5231 ft | 224 kts | 82° |
| 2026-04-21 06:00 | 34.03884 | -118.24925 | 4435 ft | 217 kts | 83° |
| 2026-04-21 06:00 | 34.03803 | -118.23148 | 4017 ft | 211 kts | 110° |
| 2026-04-21 06:00 | 34.02937 | -118.21800 | 3619 ft | 204 kts | 147° |
| 2026-04-21 06:00 | 34.01619 | -118.21252 | 3271 ft | 201 kts | 169° |
| 2026-04-21 06:01 | 34.00234 | -118.20974 | 2909 ft | 199 kts | 171° |
| 2026-04-21 06:01 | 33.98899 | -118.20783 | 2555 ft | 186 kts | 184° |
| 2026-04-21 06:01 | 33.97777 | -118.21376 | 2532 ft | 180 kts | 225° |
| 2026-04-21 06:01 | 33.96984 | -118.22556 | 2533 ft | 185 kts | 233° |
| 2026-04-21 06:02 | 33.96275 | -118.23841 | 2514 ft | 183 kts | 247° |
| 2026-04-21 06:02 | 33.95907 | -118.25292 | 2533 ft | 175 kts | 256° |
| 2026-04-21 06:02 | 33.95616 | -118.26662 | 2429 ft | 163 kts | 255° |
| 2026-04-21 06:02 | 33.95331 | -118.27929 | 2083 ft | 155 kts | 255° |
| 2026-04-21 06:03 | 33.95060 | -118.29183 | 1516 ft | 152 kts | 256° |
| 2026-04-21 06:03 | 33.94799 | -118.30427 | 854 ft | 151 kts | 256° |
| 2026-04-21 06:03 | 33.94629 | -118.31636 | 889 ft | 148 kts | 262° |
| 2026-04-21 06:03 | 33.94502 | -118.32889 | 899 ft | 151 kts | 264° |
| 2026-04-21 06:04 | 33.94395 | -118.34105 | 752 ft | 144 kts | 263° |
| 2026-04-21 06:04 | 33.94273 | -118.35281 | 566 ft | 132 kts | 263° |
| 2026-04-21 06:04 | 33.94183 | -118.36310 | 376 ft | 121 kts | 261° |
| 2026-04-21 06:04 | 33.94044 | -118.37428 | 314 ft | 141 kts | 263° |
| 2026-04-21 06:05 | 33.93931 | -118.38563 | 133 ft | 129 kts | 263° |
| 2026-04-21 06:05 | 33.93822 | -118.39595 | 104 ft | 112 kts | 262° |
| 2026-04-21 06:05 | 33.93753 | -118.40285 | 107 ft | 54 kts | 264° |
| 2026-04-21 06:05 | 33.93717 | -118.40632 | 100 ft | 44 kts | 263° |
| 2026-04-21 06:06 | 33.93645 | -118.40889 | 101 ft | 21 kts | 178° |
| 2026-04-21 06:06 | 33.93622 | -118.40886 | 100 ft | 1 kts | 169° |
| 2026-04-21 06:06 | 33.93618 | -118.40883 | 100 ft | 2 kts | 156° |
| 2026-04-21 06:06 | 33.93609 | -118.40864 | 102 ft | 3 kts | 103° |
| 2026-04-21 06:07 | 33.93602 | -118.40831 | 101 ft | 5 kts | 105° |
| 2026-04-21 06:07 | 33.93591 | -118.40786 | 100 ft | 6 kts | 113° |
| 2026-04-21 06:07 | 33.93585 | -118.40773 | 99 ft | 2 kts | 120° |
| 2026-04-21 06:07 | 33.93573 | -118.40758 | 99 ft | 3 kts | 136° |